createdAt,value
2023-03-02T00:00:49.906Z,0.83
2023-03-02T00:01:49.900Z,0.80
2023-03-02T00:02:49.930Z,0.78
2023-03-02T00:03:49.935Z,0.80
2023-03-02T00:04:50.053Z,0.78
2023-03-02T00:05:49.880Z,0.78
2023-03-02T00:06:49.832Z,0.78
2023-03-02T00:07:49.859Z,0.76
2023-03-02T00:08:49.821Z,0.78
2023-03-02T00:09:49.957Z,0.79
2023-03-02T00:10:49.784Z,0.79
2023-03-02T00:11:49.776Z,0.79
2023-03-02T00:12:49.757Z,0.79
2023-03-02T00:13:49.753Z,0.78
2023-03-02T00:14:49.902Z,0.75
2023-03-02T00:15:49.906Z,0.75
2023-03-02T00:16:49.704Z,0.75
2023-03-02T00:17:49.729Z,0.79
2023-03-02T00:18:49.672Z,0.83
2023-03-02T00:19:49.669Z,0.83
2023-03-02T00:20:49.840Z,0.84
2023-03-02T00:21:49.646Z,0.80
2023-03-02T00:22:49.630Z,0.79
2023-03-02T00:23:49.629Z,0.76
2023-03-02T00:24:49.602Z,0.75
2023-03-02T00:25:49.765Z,0.73
2023-03-02T00:26:49.589Z,0.69
2023-03-02T00:27:49.558Z,0.70
2023-03-02T00:28:49.569Z,0.69
2023-03-02T00:29:49.529Z,0.68
2023-03-02T00:30:49.711Z,0.68
2023-03-02T00:31:49.551Z,0.65
2023-03-02T00:32:49.503Z,0.65
2023-03-02T00:33:49.503Z,0.62
2023-03-02T00:34:49.474Z,0.62
2023-03-02T00:35:49.697Z,0.65
2023-03-02T00:36:49.493Z,0.62
2023-03-02T00:37:49.436Z,0.62
2023-03-02T00:38:49.439Z,0.60
2023-03-02T00:39:49.586Z,0.60
2023-03-02T00:40:49.441Z,0.57
2023-03-02T00:41:49.390Z,0.53
2023-03-02T00:42:49.394Z,0.50
2023-03-02T00:43:49.365Z,0.51
2023-03-02T00:44:49.350Z,0.50
2023-03-02T00:45:49.512Z,0.49
2023-03-02T00:46:49.366Z,0.47
2023-03-02T00:47:49.303Z,0.44
2023-03-02T00:48:49.302Z,0.42
2023-03-02T00:49:49.297Z,0.44
2023-03-02T00:50:49.480Z,0.42
2023-03-02T00:51:49.269Z,0.42
2023-03-02T00:52:49.251Z,0.42
2023-03-02T00:53:49.242Z,0.42
2023-03-02T00:54:49.228Z,0.44
2023-03-02T00:55:49.398Z,0.41
2023-03-02T00:56:49.380Z,0.39
2023-03-02T00:57:49.359Z,0.38
2023-03-02T00:58:49.190Z,0.36
2023-03-02T00:59:49.157Z,0.39
2023-03-02T01:00:49.147Z,0.38
2023-03-02T01:01:49.128Z,0.39
2023-03-02T01:02:49.236Z,0.38
2023-03-02T01:03:49.111Z,0.38
2023-03-02T01:04:49.110Z,0.35
2023-03-02T01:05:49.093Z,0.32
2023-03-02T01:06:49.089Z,0.29
2023-03-02T01:07:49.240Z,0.29
2023-03-02T01:08:49.231Z,0.26
2023-03-02T01:09:49.244Z,0.23
2023-03-02T01:10:49.031Z,0.26
2023-03-02T01:11:49.011Z,0.24
2023-03-02T01:12:49.002Z,0.26
2023-03-02T01:13:49.011Z,0.28
2023-03-02T01:14:49.167Z,0.32
2023-03-02T01:15:48.995Z,0.35
2023-03-02T01:16:48.967Z,0.38
2023-03-02T01:17:48.949Z,0.39
2023-03-02T01:18:48.950Z,0.41
2023-03-02T01:19:48.931Z,0.42
2023-03-02T01:20:49.081Z,0.44
2023-03-02T01:21:48.891Z,0.42
2023-03-02T01:22:48.897Z,0.44
2023-03-02T01:23:48.879Z,0.42
2023-03-02T01:24:48.889Z,0.42
2023-03-02T01:25:49.015Z,0.44
2023-03-02T01:26:48.830Z,0.44
2023-03-02T01:27:48.850Z,0.42
2023-03-02T01:28:50.042Z,0.44
2023-03-02T01:29:48.966Z,0.44
2023-03-02T01:30:48.790Z,0.46
2023-03-02T01:31:48.906Z,0.44
2023-03-02T01:32:48.762Z,0.42
2023-03-02T01:33:48.760Z,0.41
2023-03-02T01:34:48.912Z,0.42
2023-03-02T01:35:48.771Z,0.42
2023-03-02T01:36:48.887Z,0.46
2023-03-02T01:37:48.709Z,0.46
2023-03-02T01:38:48.736Z,0.46
2023-03-02T01:39:48.696Z,0.41
2023-03-02T01:40:48.654Z,0.41
2023-03-02T01:41:48.833Z,0.39
2023-03-02T01:42:48.645Z,0.39
2023-03-02T01:43:48.627Z,0.38
2023-03-02T01:44:48.640Z,0.41
2023-03-02T01:45:48.682Z,0.39
2023-03-02T01:46:48.763Z,0.36
2023-03-02T01:47:48.574Z,0.36
2023-03-02T01:48:48.553Z,0.36
2023-03-02T01:49:48.550Z,0.36
2023-03-02T01:50:48.552Z,0.35
2023-03-02T01:51:48.690Z,0.33
2023-03-02T01:52:48.521Z,0.31
2023-03-02T01:53:48.515Z,0.29
2023-03-02T01:54:48.500Z,0.28
2023-03-02T01:55:48.483Z,0.26
2023-03-02T01:56:48.452Z,0.26
2023-03-02T01:57:48.460Z,0.23
2023-03-02T01:58:48.441Z,0.21
2023-03-02T01:59:48.429Z,0.20
2023-03-02T02:00:48.495Z,0.18
2023-03-02T02:01:48.418Z,0.17
2023-03-02T02:02:48.392Z,0.15
2023-03-02T02:03:48.403Z,0.15
2023-03-02T02:04:48.357Z,0.14
2023-03-02T02:05:48.357Z,0.11
2023-03-02T02:06:48.330Z,0.11
2023-03-02T02:07:48.357Z,0.10
2023-03-02T02:08:48.308Z,0.10
2023-03-02T02:09:48.304Z,0.10
2023-03-02T02:10:48.310Z,0.10
2023-03-02T02:11:48.282Z,0.11
2023-03-02T02:12:48.286Z,0.10
2023-03-02T02:13:48.435Z,0.10
2023-03-02T02:14:48.248Z,0.11
2023-03-02T02:15:48.243Z,0.11
2023-03-02T02:16:48.291Z,0.11
2023-03-02T02:17:48.221Z,0.08
2023-03-02T02:18:48.186Z,0.07
2023-03-02T02:19:48.188Z,0.07
2023-03-02T02:20:48.153Z,0.04
2023-03-02T02:21:48.154Z,0.04
2023-03-02T02:22:48.303Z,0.03
2023-03-02T02:23:48.127Z,0.04
2023-03-02T02:24:48.302Z,0.03
2023-03-02T02:25:48.113Z,0.02
2023-03-02T02:26:48.102Z,0.04
2023-03-02T02:27:48.072Z,0.02
2023-03-02T02:28:48.069Z,0.00
2023-03-02T02:29:48.221Z,0.00
2023-03-02T02:30:48.205Z,-0.03
2023-03-02T02:31:48.073Z,-0.05
2023-03-02T02:32:48.035Z,-0.05
2023-03-02T02:33:48.013Z,-0.08
2023-03-02T02:34:47.984Z,-0.08
2023-03-02T02:35:48.028Z,-0.10
2023-03-02T02:36:47.967Z,-0.14
2023-03-02T02:37:47.949Z,-0.15
2023-03-02T02:38:47.948Z,-0.18
2023-03-02T02:39:47.928Z,-0.21
2023-03-02T02:40:48.115Z,-0.21
2023-03-02T02:41:48.077Z,-0.23
2023-03-02T02:42:47.888Z,-0.25
2023-03-02T02:43:47.881Z,-0.28
2023-03-02T02:44:47.868Z,-0.29
2023-03-02T02:45:47.933Z,-0.29
2023-03-02T02:46:47.861Z,-0.33
2023-03-02T02:47:48.010Z,-0.33
2023-03-02T02:48:47.816Z,-0.31
2023-03-02T02:49:47.825Z,-0.33
2023-03-02T02:50:47.797Z,-0.34
2023-03-02T02:51:47.794Z,-0.36
2023-03-02T02:52:47.945Z,-0.34
2023-03-02T02:53:47.777Z,-0.36
2023-03-02T02:54:47.754Z,-0.33
2023-03-02T02:55:47.737Z,-0.33
2023-03-02T02:56:47.722Z,-0.34
2023-03-02T02:57:47.692Z,-0.34
2023-03-02T02:58:47.868Z,-0.36
2023-03-02T02:59:47.677Z,-0.36
2023-03-02T03:00:47.797Z,-0.37
2023-03-02T03:01:47.660Z,-0.37
2023-03-02T03:02:47.645Z,-0.36
2023-03-02T03:03:47.645Z,-0.37
2023-03-02T03:04:47.701Z,-0.36
2023-03-02T03:05:47.625Z,-0.36
2023-03-02T03:06:47.616Z,-0.36
2023-03-02T03:07:47.579Z,-0.36
2023-03-02T03:08:47.743Z,-0.36
2023-03-02T03:09:47.615Z,-0.37
2023-03-02T03:10:47.552Z,-0.37
2023-03-02T03:11:47.533Z,-0.37
2023-03-02T03:12:47.542Z,-0.37
2023-03-02T03:13:47.519Z,-0.37
2023-03-02T03:14:47.514Z,-0.40
2023-03-02T03:15:47.487Z,-0.43
2023-03-02T03:16:47.561Z,-0.44
2023-03-02T03:17:47.457Z,-0.44
2023-03-02T03:18:47.436Z,-0.46
2023-03-02T03:19:47.612Z,-0.47
2023-03-02T03:20:47.421Z,-0.47
2023-03-02T03:21:47.417Z,-0.49
2023-03-02T03:22:47.394Z,-0.49
2023-03-02T03:23:47.373Z,-0.54
2023-03-02T03:24:47.555Z,-0.54
2023-03-02T03:25:47.346Z,-0.54
2023-03-02T03:26:47.348Z,-0.54
2023-03-02T03:27:47.335Z,-0.55
2023-03-02T03:28:47.321Z,-0.55
2023-03-02T03:29:47.469Z,-0.55
2023-03-02T03:30:47.346Z,-0.55
2023-03-02T03:31:47.277Z,-0.55
2023-03-02T03:32:47.274Z,-0.55
2023-03-02T03:33:47.249Z,-0.57
2023-03-02T03:34:47.607Z,-0.58
2023-03-02T03:35:47.235Z,-0.57
2023-03-02T03:36:47.234Z,-0.57
2023-03-02T03:37:47.214Z,-0.58
2023-03-02T03:38:47.193Z,-0.58
2023-03-02T03:39:47.223Z,-0.58
2023-03-02T03:40:47.367Z,-0.60
2023-03-02T03:41:47.161Z,-0.61
2023-03-02T03:42:47.181Z,-0.61
2023-03-02T03:43:47.120Z,-0.60
2023-03-02T03:44:47.112Z,-0.61
2023-03-02T03:45:47.106Z,-0.62
2023-03-02T03:46:47.090Z,-0.64
2023-03-02T03:47:47.077Z,-0.64
2023-03-02T03:48:47.083Z,-0.62
2023-03-02T03:49:47.060Z,-0.62
2023-03-02T03:50:47.255Z,-0.62
2023-03-02T03:51:47.027Z,-0.64
2023-03-02T03:52:47.019Z,-0.62
2023-03-02T03:53:47.042Z,-0.64
2023-03-02T03:54:47.009Z,-0.65
2023-03-02T03:55:46.996Z,-0.65
2023-03-02T03:56:46.957Z,-0.67
2023-03-02T03:57:47.132Z,-0.69
2023-03-02T03:58:46.981Z,-0.69
2023-03-02T03:59:46.925Z,-0.69
2023-03-02T04:00:46.925Z,-0.70
2023-03-02T04:01:47.168Z,-0.72
2023-03-02T04:02:46.986Z,-0.73
2023-03-02T04:03:46.884Z,-0.76
2023-03-02T04:04:46.865Z,-0.79
2023-03-02T04:05:46.843Z,-0.82
2023-03-02T04:06:47.017Z,-0.83
2023-03-02T04:07:46.827Z,-0.80
2023-03-02T04:08:46.813Z,-0.79
2023-03-02T04:09:46.813Z,-0.78
2023-03-02T04:10:46.792Z,-0.79
2023-03-02T04:11:46.951Z,-0.78
2023-03-02T04:12:46.978Z,-0.76
2023-03-02T04:13:46.925Z,-0.76
2023-03-02T04:14:46.753Z,-0.73
2023-03-02T04:15:47.243Z,-0.72
2023-03-02T04:16:46.717Z,-0.70
2023-03-02T04:17:46.705Z,-0.69
2023-03-02T04:18:46.710Z,-0.70
2023-03-02T04:19:46.679Z,-0.70
2023-03-02T04:20:46.663Z,-0.69
2023-03-02T04:21:46.658Z,-0.69
2023-03-02T04:22:46.647Z,-0.65
2023-03-02T04:23:46.804Z,-0.64
2023-03-02T04:24:46.786Z,-0.64
2023-03-02T04:25:46.610Z,-0.61
2023-03-02T04:26:46.601Z,-0.62
2023-03-02T04:27:46.587Z,-0.60
2023-03-02T04:28:46.579Z,-0.58
2023-03-02T04:29:46.732Z,-0.58
2023-03-02T04:30:46.582Z,-0.55
2023-03-02T04:31:46.533Z,-0.54
2023-03-02T04:32:46.524Z,-0.52
2023-03-02T04:33:46.502Z,-0.49
2023-03-02T04:34:46.692Z,-0.49
2023-03-02T04:35:46.510Z,-0.49
2023-03-02T04:36:46.484Z,-0.49
2023-03-02T04:37:46.458Z,-0.49
2023-03-02T04:38:46.453Z,-0.49
2023-03-02T04:39:46.615Z,-0.51
2023-03-02T04:40:46.425Z,-0.54
2023-03-02T04:41:46.596Z,-0.52
2023-03-02T04:42:46.405Z,-0.52
2023-03-02T04:43:46.394Z,-0.54
2023-03-02T04:44:46.385Z,-0.55
2023-03-02T04:45:46.375Z,-0.55
2023-03-02T04:46:46.612Z,-0.54
2023-03-02T04:47:46.345Z,-0.58
2023-03-02T04:48:46.341Z,-0.57
2023-03-02T04:49:46.316Z,-0.60
2023-03-02T04:50:46.308Z,-0.62
2023-03-02T04:51:46.470Z,-0.62
2023-03-02T04:52:46.285Z,-0.67
2023-03-02T04:53:46.269Z,-0.67
2023-03-02T04:54:46.264Z,-0.69
2023-03-02T04:55:46.244Z,-0.72
2023-03-02T04:56:46.413Z,-0.73
2023-03-02T04:57:46.229Z,-0.75
2023-03-02T04:58:46.215Z,-0.75
2023-03-02T04:59:46.184Z,-0.76
2023-03-02T05:00:46.183Z,-0.78
2023-03-02T05:01:46.359Z,-0.79
2023-03-02T05:02:46.159Z,-0.82
2023-03-02T05:03:46.138Z,-0.82
2023-03-02T05:04:46.223Z,-0.82
2023-03-02T05:05:46.853Z,-0.85
2023-03-02T05:06:46.299Z,-0.85
2023-03-02T05:07:46.116Z,-0.86
2023-03-02T05:08:46.088Z,-0.86
2023-03-02T05:09:46.075Z,-0.89
2023-03-02T05:10:46.058Z,-0.89
2023-03-02T05:11:46.045Z,-0.91
2023-03-02T05:12:46.215Z,-0.91
2023-03-02T05:13:46.020Z,-0.92
2023-03-02T05:14:46.005Z,-0.91
2023-03-02T05:15:46.013Z,-0.92
2023-03-02T05:16:45.996Z,-0.94
2023-03-02T05:17:46.143Z,-0.95
2023-03-02T05:18:45.969Z,-0.97
2023-03-02T05:19:45.956Z,-0.98
2023-03-02T05:20:45.926Z,-0.99
2023-03-02T05:21:45.926Z,-0.99
2023-03-02T05:22:46.243Z,-0.99
2023-03-02T05:23:45.896Z,-0.98
2023-03-02T05:24:45.875Z,-0.98
2023-03-02T05:25:45.864Z,-0.99
2023-03-02T05:26:46.095Z,-0.98
2023-03-02T05:27:45.844Z,-0.97
2023-03-02T05:28:45.844Z,-0.98
2023-03-02T05:29:45.817Z,-0.97
2023-03-02T05:30:45.804Z,-0.94
2023-03-02T05:31:46.084Z,-0.95
2023-03-02T05:32:45.958Z,-0.95
2023-03-02T05:33:45.775Z,-0.95
2023-03-02T05:34:45.753Z,-0.97
2023-03-02T05:35:45.806Z,-0.98
2023-03-02T05:36:45.740Z,-0.97
2023-03-02T05:37:45.960Z,-0.95
2023-03-02T05:38:45.721Z,-0.97
2023-03-02T05:39:45.910Z,-0.97
2023-03-02T05:40:45.684Z,-0.95
2023-03-02T05:41:45.673Z,-0.94
2023-03-02T05:42:45.670Z,-0.91
2023-03-02T05:43:45.640Z,-0.92
2023-03-02T05:44:45.634Z,-0.95
2023-03-02T05:45:45.673Z,-0.95
2023-03-02T05:46:45.678Z,-0.97
2023-03-02T05:47:45.593Z,-1.01
2023-03-02T05:48:45.589Z,-0.99
2023-03-02T05:49:45.585Z,-1.04
2023-03-02T05:50:45.748Z,-1.04
2023-03-02T05:51:45.550Z,-1.04
2023-03-02T05:52:45.726Z,-1.05
2023-03-02T05:53:45.529Z,-1.05
2023-03-02T05:54:45.509Z,-1.09
2023-03-02T05:55:45.514Z,-1.09
2023-03-02T05:56:45.506Z,-1.07
2023-03-02T05:57:45.474Z,-1.09
2023-03-02T05:58:45.474Z,-1.09
2023-03-02T05:59:45.433Z,-1.07
2023-03-02T06:00:45.433Z,-1.07
2023-03-02T06:01:45.419Z,-1.07
2023-03-02T06:02:45.441Z,-1.07
2023-03-02T06:03:45.407Z,-1.09
2023-03-02T06:04:45.380Z,-1.07
2023-03-02T06:05:45.371Z,-1.07
2023-03-02T06:06:45.540Z,-1.07
2023-03-02T06:07:45.352Z,-1.07
2023-03-02T06:08:45.517Z,-1.02
2023-03-02T06:09:45.321Z,-1.01
2023-03-02T06:10:45.319Z,-0.98
2023-03-02T06:11:45.296Z,-0.97
2023-03-02T06:12:45.290Z,-0.97
2023-03-02T06:13:45.290Z,-0.97
2023-03-02T06:14:45.274Z,-0.95
2023-03-02T06:15:45.250Z,-0.95
2023-03-02T06:16:45.252Z,-0.94
2023-03-02T06:17:45.233Z,-0.94
2023-03-02T06:18:45.238Z,-0.92
2023-03-02T06:19:45.235Z,-0.89
2023-03-02T06:20:45.183Z,-0.86
2023-03-02T06:21:45.204Z,-0.89
2023-03-02T06:22:45.219Z,-0.89
2023-03-02T06:23:45.144Z,-0.89
2023-03-02T06:24:45.151Z,-0.89
2023-03-02T06:25:45.125Z,-0.91
2023-03-02T06:26:45.115Z,-0.91
2023-03-02T06:27:45.097Z,-0.91
2023-03-02T06:28:53.871Z,-0.92
2023-03-02T06:29:46.242Z,-0.92
2023-03-02T06:30:45.065Z,-0.97
2023-03-02T06:31:45.175Z,-0.98
2023-03-02T06:32:45.057Z,-0.98
2023-03-02T06:33:45.041Z,-0.95
2023-03-02T06:34:45.194Z,-0.91
2023-03-02T06:35:45.112Z,-0.91
2023-03-02T06:36:44.993Z,-0.86
2023-03-02T06:37:44.980Z,-0.83
2023-03-02T06:38:44.972Z,-0.82
2023-03-02T06:39:45.253Z,-0.80
2023-03-02T06:40:44.943Z,-0.80
2023-03-02T06:41:44.930Z,-0.80
2023-03-02T06:42:44.912Z,-0.80
2023-03-02T06:43:44.909Z,-0.80
2023-03-02T06:44:45.051Z,-0.79
2023-03-02T06:45:44.893Z,-0.79
2023-03-02T06:46:44.882Z,-0.78
2023-03-02T06:47:45.101Z,-0.76
2023-03-02T06:48:44.847Z,-0.78
2023-03-02T06:49:44.835Z,-0.78
2023-03-02T06:50:44.843Z,-0.79
2023-03-02T06:51:44.799Z,-0.79
2023-03-02T06:52:44.810Z,-0.80
2023-03-02T06:53:44.781Z,-0.82
2023-03-02T06:54:44.781Z,-0.82
2023-03-02T06:55:44.789Z,-0.80
2023-03-02T06:56:44.753Z,-0.79
2023-03-02T06:57:44.918Z,-0.79
2023-03-02T06:58:44.718Z,-0.79
2023-03-02T06:59:44.707Z,-0.78
2023-03-02T07:00:44.723Z,-0.79
2023-03-02T07:01:44.721Z,-0.78
2023-03-02T07:02:44.703Z,-0.79
2023-03-02T07:03:44.721Z,-0.78
2023-03-02T07:04:44.663Z,-0.76
2023-03-02T07:05:46.142Z,-0.76
2023-03-02T07:06:44.625Z,-0.73
2023-03-02T07:07:44.636Z,-0.72
2023-03-02T07:08:44.592Z,-0.70
2023-03-02T07:09:44.582Z,-0.65
2023-03-02T07:10:44.574Z,-0.62
2023-03-02T07:11:44.596Z,-0.61
2023-03-02T07:12:44.548Z,-0.61
2023-03-02T07:13:44.543Z,-0.60
2023-03-02T07:14:44.517Z,-0.55
2023-03-02T07:15:44.499Z,-0.52
2023-03-02T07:16:44.570Z,-0.51
2023-03-02T07:17:44.491Z,-0.47
2023-03-02T07:18:44.648Z,-0.44
2023-03-02T07:19:44.463Z,-0.40
2023-03-02T07:20:44.450Z,-0.39
2023-03-02T07:21:44.432Z,-0.37
2023-03-02T07:22:44.419Z,-0.33
2023-03-02T07:23:44.417Z,-0.33
2023-03-02T07:24:45.093Z,-0.31
2023-03-02T07:25:44.393Z,-0.31
2023-03-02T07:26:44.376Z,-0.26
2023-03-02T07:27:44.354Z,-0.26
2023-03-02T07:28:44.421Z,-0.25
2023-03-02T07:29:44.330Z,-0.25
2023-03-02T07:30:44.540Z,-0.23
2023-03-02T07:31:44.345Z,-0.21
2023-03-02T07:32:44.306Z,-0.19
2023-03-02T07:33:44.290Z,-0.16
2023-03-02T07:34:44.272Z,-0.15
2023-03-02T07:35:44.516Z,-0.11
2023-03-02T07:36:44.251Z,-0.08
2023-03-02T07:37:44.241Z,-0.08
2023-03-02T07:38:44.234Z,-0.08
2023-03-02T07:39:44.212Z,-0.05
2023-03-02T07:40:44.373Z,-0.04
2023-03-02T07:41:44.182Z,-0.03
2023-03-02T07:42:44.358Z,-0.03
2023-03-02T07:43:44.156Z,0.00
2023-03-02T07:44:44.151Z,0.04
2023-03-02T07:45:44.143Z,0.08
2023-03-02T07:46:44.376Z,0.10
2023-03-02T07:47:44.114Z,0.13
2023-03-02T07:48:44.167Z,0.17
2023-03-02T07:49:44.082Z,0.17
2023-03-02T07:50:44.080Z,0.24
2023-03-02T07:51:44.255Z,0.28
2023-03-02T07:52:44.057Z,0.33
2023-03-02T07:53:44.049Z,0.36
2023-03-02T07:54:44.023Z,0.42
2023-03-02T07:55:44.015Z,0.44
2023-03-02T07:56:44.006Z,0.49
2023-03-02T07:57:43.989Z,0.51
2023-03-02T07:58:43.992Z,0.58
2023-03-02T07:59:43.960Z,0.62
2023-03-02T08:00:43.947Z,0.68
2023-03-02T08:01:44.155Z,0.72
2023-03-02T08:02:43.978Z,0.75
2023-03-02T08:03:43.928Z,0.79
2023-03-02T08:04:43.898Z,0.84
2023-03-02T08:05:44.059Z,0.87
2023-03-02T08:06:43.887Z,0.88
2023-03-02T08:07:43.881Z,0.91
2023-03-02T08:08:43.861Z,0.96
2023-03-02T08:09:43.839Z,1.00
2023-03-02T08:10:43.818Z,1.04
2023-03-02T08:11:43.996Z,1.09
2023-03-02T08:12:43.807Z,1.12
2023-03-02T08:13:43.786Z,1.15
2023-03-02T08:14:44.221Z,1.20
2023-03-02T08:15:43.769Z,1.23
2023-03-02T08:16:43.934Z,1.29
2023-03-02T08:17:43.734Z,1.32
2023-03-02T08:18:43.740Z,1.34
2023-03-02T08:19:43.710Z,1.37
2023-03-02T08:20:43.714Z,1.42
2023-03-02T08:21:43.886Z,1.45
2023-03-02T08:22:43.679Z,1.48
2023-03-02T08:23:43.720Z,1.51
2023-03-02T08:24:43.681Z,1.55
2023-03-02T08:25:43.640Z,1.58
2023-03-02T08:26:43.634Z,1.65
2023-03-02T08:27:43.634Z,1.68
2023-03-02T08:28:43.614Z,1.72
2023-03-02T08:29:43.596Z,1.77
2023-03-02T08:30:43.604Z,1.81
2023-03-02T08:31:43.574Z,1.84
2023-03-02T08:32:43.591Z,1.87
2023-03-02T08:33:43.699Z,1.91
2023-03-02T08:34:43.534Z,2.00
2023-03-02T08:35:43.555Z,2.06
2023-03-02T08:36:43.515Z,2.10
2023-03-02T08:37:43.662Z,2.17
2023-03-02T08:38:43.481Z,2.20
2023-03-02T08:39:43.656Z,2.24
2023-03-02T08:40:43.470Z,2.27
2023-03-02T08:41:43.456Z,2.27
2023-03-02T08:42:43.428Z,2.35
2023-03-02T08:43:43.432Z,2.41
2023-03-02T08:44:43.411Z,2.46
2023-03-02T08:45:43.588Z,2.54
2023-03-02T08:46:43.548Z,2.60
2023-03-02T08:47:43.369Z,2.66
2023-03-02T08:48:43.360Z,2.71
2023-03-02T08:49:43.346Z,2.75
2023-03-02T08:50:43.317Z,2.81
2023-03-02T08:51:43.490Z,2.87
2023-03-02T08:52:43.314Z,2.87
2023-03-02T08:53:43.312Z,2.92
2023-03-02T08:54:43.315Z,2.99
2023-03-02T08:55:43.265Z,3.06
2023-03-02T08:56:43.256Z,3.14
2023-03-02T08:57:43.253Z,3.23
2023-03-02T08:58:43.223Z,3.29
2023-03-02T08:59:43.219Z,3.35
2023-03-02T09:00:43.239Z,3.43
2023-03-02T09:01:43.258Z,3.52
2023-03-02T09:02:43.179Z,3.58
2023-03-02T09:03:43.352Z,3.66
2023-03-02T09:04:43.201Z,3.69
2023-03-02T09:05:43.131Z,3.73
2023-03-02T09:06:43.139Z,3.79
2023-03-02T09:07:43.305Z,3.86
2023-03-02T09:08:43.098Z,3.93
2023-03-02T09:09:43.098Z,4.02
2023-03-02T09:10:43.095Z,4.09
2023-03-02T09:11:43.057Z,4.15
2023-03-02T09:12:43.048Z,4.18
2023-03-02T09:13:43.226Z,4.23
2023-03-02T09:14:43.036Z,4.23
2023-03-02T09:15:43.029Z,4.26
2023-03-02T09:16:43.049Z,4.32
2023-03-02T09:17:42.988Z,4.36
2023-03-02T09:18:42.981Z,4.41
2023-03-02T09:19:44.565Z,4.42
2023-03-02T09:20:42.945Z,4.44
2023-03-02T09:21:42.936Z,4.51
2023-03-02T09:22:42.925Z,4.59
2023-03-02T09:23:43.201Z,4.67
2023-03-02T09:24:42.905Z,4.77
2023-03-02T09:25:44.236Z,4.89
2023-03-02T09:26:42.875Z,4.97
2023-03-02T09:27:42.864Z,5.03
2023-03-02T09:28:42.842Z,5.07
2023-03-02T09:29:43.017Z,5.09
2023-03-02T09:30:43.004Z,5.10
2023-03-02T09:31:43.044Z,5.06
2023-03-02T09:32:42.908Z,5.10
2023-03-02T09:33:42.785Z,5.20
2023-03-02T09:34:42.785Z,5.20
2023-03-02T09:35:42.778Z,5.25
2023-03-02T09:36:42.755Z,5.27
2023-03-02T09:37:44.468Z,5.31
2023-03-02T09:38:42.714Z,5.36
2023-03-02T09:39:42.765Z,5.40
2023-03-02T09:40:42.696Z,5.48
2023-03-02T09:41:42.982Z,5.54
2023-03-02T09:42:44.454Z,5.64
2023-03-02T09:43:42.836Z,5.65
2023-03-02T09:44:42.653Z,5.63
2023-03-02T09:45:42.674Z,5.65
2023-03-02T09:46:42.624Z,5.72
2023-03-02T09:47:42.613Z,5.79
2023-03-02T09:48:42.777Z,5.90
2023-03-02T09:49:42.584Z,5.91
2023-03-02T09:50:42.561Z,5.93
2023-03-02T09:51:42.732Z,5.75
2023-03-02T09:52:42.539Z,5.75
2023-03-02T09:53:42.711Z,5.85
2023-03-02T09:54:42.538Z,6.01
2023-03-02T09:55:42.508Z,6.27
2023-03-02T09:56:42.490Z,6.46
2023-03-02T09:57:42.721Z,6.54
2023-03-02T09:58:42.469Z,6.62
2023-03-02T09:59:42.459Z,6.62
2023-03-02T10:00:42.445Z,6.52
2023-03-02T10:01:42.418Z,6.59
2023-03-02T10:02:42.441Z,6.79
2023-03-02T10:03:42.434Z,6.97
2023-03-02T10:04:42.444Z,7.17
2023-03-02T10:05:42.376Z,7.16
2023-03-02T10:06:42.370Z,7.10
2023-03-02T10:07:42.526Z,7.24
2023-03-02T10:08:42.364Z,7.39
2023-03-02T10:09:42.316Z,7.43
2023-03-02T10:10:42.343Z,7.45
2023-03-02T10:11:42.318Z,7.35
2023-03-02T10:12:42.464Z,7.28
2023-03-02T10:13:42.285Z,7.40
2023-03-02T10:14:42.254Z,7.45
2023-03-02T10:15:42.488Z,7.57
2023-03-02T10:16:42.330Z,7.55
2023-03-02T10:17:42.232Z,7.45
2023-03-02T10:18:42.222Z,7.37
2023-03-02T10:19:42.206Z,7.24
2023-03-02T10:20:42.199Z,7.27
2023-03-02T10:21:42.163Z,7.45
2023-03-02T10:22:42.152Z,7.48
2023-03-02T10:23:42.313Z,7.60
2023-03-02T10:24:42.141Z,7.83
2023-03-02T10:25:42.121Z,7.90
2023-03-02T10:26:42.106Z,7.82
2023-03-02T10:27:42.119Z,7.79
2023-03-02T10:28:42.252Z,7.92
2023-03-02T10:29:42.062Z,8.11
2023-03-02T10:30:42.094Z,8.23
2023-03-02T10:31:42.045Z,8.36
2023-03-02T10:32:42.208Z,8.37
2023-03-02T10:33:42.180Z,8.47
2023-03-02T10:34:41.999Z,8.43
2023-03-02T10:35:42.046Z,8.48
2023-03-02T10:36:41.975Z,8.56
2023-03-02T10:37:42.034Z,8.66
2023-03-02T10:38:42.127Z,8.87
2023-03-02T10:39:41.929Z,9.08
2023-03-02T10:40:41.919Z,9.11
2023-03-02T10:41:41.928Z,9.04
2023-03-02T10:42:41.904Z,8.99
2023-03-02T10:43:42.053Z,8.76
2023-03-02T10:44:41.880Z,8.74
2023-03-02T10:45:41.847Z,8.62
2023-03-02T10:46:41.922Z,8.74
2023-03-02T10:47:41.820Z,8.86
2023-03-02T10:48:41.964Z,8.83
2023-03-02T10:49:41.801Z,8.65
2023-03-02T10:50:41.786Z,8.45
2023-03-02T10:51:41.791Z,8.25
2023-03-02T10:52:46.128Z,8.41
2023-03-02T10:53:42.917Z,8.79
2023-03-02T10:54:41.738Z,9.20
2023-03-02T10:55:41.724Z,9.33
2023-03-02T10:56:41.719Z,9.36
2023-03-02T10:57:41.705Z,9.51
2023-03-02T10:58:41.864Z,9.39
2023-03-02T10:59:41.668Z,9.46
2023-03-02T11:00:41.667Z,9.60
2023-03-02T11:01:41.687Z,9.68
2023-03-02T11:02:41.636Z,9.87
2023-03-02T11:03:41.794Z,9.81
2023-03-02T11:04:41.733Z,9.90
2023-03-02T11:05:41.694Z,10.05
2023-03-02T11:06:41.673Z,10.26
2023-03-02T11:07:41.665Z,10.30
2023-03-02T11:08:41.641Z,10.40
2023-03-02T11:09:41.558Z,10.60
2023-03-02T11:10:41.555Z,10.71
2023-03-02T11:11:41.579Z,10.86
2023-03-02T11:12:41.511Z,11.10
2023-03-02T11:13:41.501Z,11.10
2023-03-02T11:14:41.512Z,11.02
2023-03-02T11:15:41.708Z,11.09
2023-03-02T11:16:41.470Z,10.70
2023-03-02T11:17:41.452Z,10.26
2023-03-02T11:18:41.436Z,10.14
2023-03-02T11:19:41.422Z,9.96
2023-03-02T11:20:41.441Z,9.78
2023-03-02T11:21:41.382Z,9.76
2023-03-02T11:22:41.407Z,9.90
2023-03-02T11:23:41.364Z,10.30
2023-03-02T11:24:41.349Z,10.41
2023-03-02T11:25:41.523Z,10.47
2023-03-02T11:26:41.329Z,10.59
2023-03-02T11:27:41.308Z,10.73
2023-03-02T11:28:41.487Z,10.73
2023-03-02T11:29:41.290Z,10.66
2023-03-02T11:30:41.268Z,10.71
2023-03-02T11:31:41.350Z,10.44
2023-03-02T11:32:41.330Z,9.99
2023-03-02T11:33:41.300Z,9.66
2023-03-02T11:34:41.241Z,9.58
2023-03-02T11:35:41.239Z,9.74
2023-03-02T11:36:41.213Z,10.22
2023-03-02T11:37:41.195Z,10.78
2023-03-02T11:38:41.178Z,11.02
2023-03-02T11:39:46.373Z,11.46
2023-03-02T11:40:43.073Z,11.88
2023-03-02T11:41:41.138Z,12.12
2023-03-02T11:42:41.113Z,12.23
2023-03-02T11:43:41.296Z,12.20
2023-03-02T11:44:41.104Z,12.16
2023-03-02T11:45:41.255Z,12.45
2023-03-02T11:46:41.110Z,12.71
2023-03-02T11:47:41.060Z,12.87
2023-03-02T11:48:41.039Z,13.03
2023-03-02T11:49:41.035Z,13.26
2023-03-02T11:50:41.035Z,13.28
2023-03-02T11:51:47.395Z,13.33
2023-03-02T11:52:41.989Z,13.51
2023-03-02T11:53:41.008Z,13.49
2023-03-02T11:54:40.963Z,13.57
2023-03-02T11:55:40.970Z,13.44
2023-03-02T11:56:40.939Z,13.22
2023-03-02T11:57:40.928Z,13.07
2023-03-02T11:58:40.913Z,12.70
2023-03-02T11:59:40.897Z,12.34
2023-03-02T12:00:40.907Z,12.31
2023-03-02T12:01:40.925Z,12.19
2023-03-02T12:02:40.855Z,12.20
2023-03-02T12:03:40.845Z,11.70
2023-03-02T12:04:40.850Z,10.84
2023-03-02T12:05:41.024Z,10.63
2023-03-02T12:06:40.985Z,10.79
2023-03-02T12:07:40.784Z,10.94
2023-03-02T12:08:40.788Z,11.00
2023-03-02T12:09:40.769Z,10.67
2023-03-02T12:10:40.767Z,10.33
2023-03-02T12:11:40.780Z,10.30
2023-03-02T12:12:40.896Z,10.59
2023-03-02T12:13:40.725Z,10.45
2023-03-02T12:14:40.705Z,10.64
2023-03-02T12:15:40.709Z,10.76
2023-03-02T12:16:40.718Z,10.70
2023-03-02T12:17:40.870Z,10.79
2023-03-02T12:18:40.656Z,11.17
2023-03-02T12:19:40.700Z,11.43
2023-03-02T12:20:40.630Z,11.79
2023-03-02T12:21:40.614Z,12.10
2023-03-02T12:22:40.792Z,12.23
2023-03-02T12:23:40.590Z,12.60
2023-03-02T12:24:40.865Z,12.89
2023-03-02T12:25:40.565Z,12.74
2023-03-02T12:26:40.542Z,11.98
2023-03-02T12:27:40.740Z,11.37
2023-03-02T12:28:40.540Z,11.14
2023-03-02T12:29:40.518Z,10.88
2023-03-02T12:30:40.504Z,10.73
2023-03-02T12:31:40.560Z,10.66
2023-03-02T12:32:40.755Z,10.73
2023-03-02T12:33:40.474Z,10.81
2023-03-02T12:34:40.445Z,10.64
2023-03-02T12:35:40.444Z,10.61
2023-03-02T12:36:40.444Z,10.94
2023-03-02T12:37:40.596Z,11.10
2023-03-02T12:38:40.613Z,11.21
2023-03-02T12:39:40.407Z,11.28
2023-03-02T12:40:40.373Z,11.55
2023-03-02T12:41:40.613Z,11.94
2023-03-02T12:42:40.333Z,12.17
2023-03-02T12:43:40.361Z,12.24
2023-03-02T12:44:40.322Z,12.14
2023-03-02T12:45:40.348Z,11.96
2023-03-02T12:46:40.295Z,11.61
2023-03-02T12:47:40.435Z,11.39
2023-03-02T12:48:40.558Z,11.35
2023-03-02T12:49:40.266Z,11.35
2023-03-02T12:50:40.253Z,11.27
2023-03-02T12:51:40.326Z,11.25
2023-03-02T12:52:40.271Z,11.24
2023-03-02T12:53:40.216Z,11.43
2023-03-02T12:54:40.190Z,11.72
2023-03-02T12:55:40.179Z,11.82
2023-03-02T12:56:40.346Z,11.91
2023-03-02T12:57:40.167Z,11.88
2023-03-02T12:58:40.142Z,11.78
2023-03-02T12:59:40.125Z,11.47
2023-03-02T13:00:40.123Z,11.29
2023-03-02T13:01:40.297Z,11.29
2023-03-02T13:02:40.308Z,11.40
2023-03-02T13:03:40.157Z,11.29
2023-03-02T13:04:40.049Z,11.19